createdAt,value
2022-07-28T00:02:19.074Z,1.30
2022-07-28T00:07:20.753Z,1.33
2022-07-28T00:12:22.396Z,1.60
2022-07-28T00:17:23.986Z,1.03
2022-07-28T00:22:25.573Z,1.20
2022-07-28T00:27:27.299Z,1.17
2022-07-28T00:32:28.815Z,1.40
2022-07-28T00:37:30.495Z,1.20
2022-07-28T00:42:32.067Z,1.17
2022-07-28T00:47:34.249Z,1.30
2022-07-28T00:52:36.130Z,1.10
2022-07-28T00:57:37.692Z,1.07
2022-07-28T01:02:39.404Z,1.00
2022-07-28T01:08:04.350Z,1.00
2022-07-28T01:13:32.866Z,1.00
2022-07-28T01:18:43.381Z,0.90
2022-07-28T01:24:08.621Z,1.10
2022-07-28T01:29:14.382Z,1.10
2022-07-28T01:34:28.887Z,1.20
2022-07-28T01:39:32.618Z,1.20
2022-07-28T01:44:38.260Z,1.20
2022-07-28T01:49:40.986Z,1.10
2022-07-28T01:54:45.759Z,1.10
2022-07-28T01:59:49.656Z,1.20
2022-07-28T02:04:55.157Z,1.10
2022-07-28T02:09:57.767Z,1.20
2022-07-28T02:14:59.757Z,1.10
2022-07-28T02:20:01.709Z,1.30
2022-07-28T02:25:04.581Z,1.30
2022-07-28T02:30:08.339Z,0.90
2022-07-28T02:35:17.274Z,1.37
2022-07-28T02:40:21.654Z,1.13
2022-07-28T02:45:26.460Z,1.30
2022-07-28T02:50:28.813Z,1.10
2022-07-28T02:55:31.201Z,1.00
2022-07-28T03:00:32.824Z,1.30
2022-07-28T03:05:34.672Z,1.20
2022-07-28T03:10:36.560Z,1.50
2022-07-28T03:15:40.118Z,1.30
2022-07-28T03:20:41.649Z,1.30
2022-07-28T03:25:48.808Z,1.30
2022-07-28T03:31:04.399Z,1.33
2022-07-28T03:36:09.535Z,1.30
2022-07-28T03:41:11.462Z,1.10
2022-07-28T03:46:13.614Z,1.20
2022-07-28T03:51:15.352Z,1.63
2022-07-28T03:56:16.991Z,1.50
2022-07-28T04:01:18.640Z,1.40
2022-07-28T04:06:20.370Z,1.63
2022-07-28T04:11:21.991Z,1.27
2022-07-28T04:16:23.633Z,1.27
2022-07-28T04:21:25.802Z,1.60
2022-07-28T04:26:27.352Z,1.53
2022-07-28T04:31:28.976Z,1.40
2022-07-28T04:36:30.915Z,1.43
2022-07-28T04:41:32.521Z,1.57
2022-07-28T04:46:35.850Z,1.30
2022-07-28T04:51:37.403Z,1.50
2022-07-28T04:56:38.910Z,1.77
2022-07-28T05:01:41.140Z,1.20
2022-07-28T05:06:42.950Z,1.47
2022-07-28T05:11:44.645Z,1.33
2022-07-28T05:16:47.073Z,1.33
2022-07-28T05:21:48.937Z,1.20
2022-07-28T05:26:50.705Z,1.40
2022-07-28T05:31:52.517Z,1.03
2022-07-28T05:36:54.520Z,1.40
2022-07-28T05:41:56.218Z,1.50
2022-07-28T05:46:57.801Z,1.30
2022-07-28T05:51:59.546Z,1.00
2022-07-28T05:57:01.264Z,1.20
2022-07-28T06:02:04.380Z,0.90
2022-07-28T06:07:06.097Z,1.50
2022-07-28T06:12:09.102Z,1.47
2022-07-28T06:17:10.757Z,1.33
2022-07-28T06:22:12.418Z,1.30
2022-07-28T06:27:14.091Z,1.03
2022-07-28T06:32:17.028Z,0.90
2022-07-28T06:37:18.583Z,0.85
2022-07-28T06:42:20.097Z,1.15
2022-07-28T06:47:21.602Z,1.10
2022-07-28T06:52:23.184Z,1.10
2022-07-28T06:57:28.157Z,1.05
2022-07-28T07:02:40.019Z,1.08
2022-07-28T07:07:43.598Z,0.88
2022-07-28T07:12:45.729Z,1.17
2022-07-28T07:17:47.385Z,0.85
2022-07-28T07:22:48.965Z,0.57
2022-07-28T07:27:50.587Z,0.90
2022-07-28T07:32:52.263Z,0.70
2022-07-28T07:37:53.882Z,0.93
2022-07-28T07:42:55.445Z,0.85
2022-07-28T07:47:57.028Z,0.80
2022-07-28T07:52:58.689Z,0.70
2022-07-28T07:58:00.212Z,0.90
2022-07-28T08:03:01.785Z,1.08
2022-07-28T08:08:05.221Z,0.75
2022-07-28T08:13:07.796Z,0.80
2022-07-28T08:18:09.651Z,1.05
2022-07-28T08:23:11.194Z,0.90
2022-07-28T08:28:13.477Z,0.68
2022-07-28T08:33:14.991Z,0.80
2022-07-28T08:38:16.569Z,0.88
2022-07-28T08:43:30.770Z,0.55
2022-07-28T08:48:35.847Z,1.10
2022-07-28T08:53:39.377Z,0.85
2022-07-28T08:58:41.375Z,0.60
2022-07-28T09:03:43.444Z,0.77
2022-07-28T09:08:45.191Z,0.63
2022-07-28T09:13:50.891Z,0.52
2022-07-28T09:18:55.258Z,0.82
2022-07-28T09:23:57.113Z,0.82
2022-07-28T09:28:59.140Z,0.70
2022-07-28T09:34:05.607Z,0.50
2022-07-28T09:39:07.710Z,0.80
2022-07-28T09:44:18.469Z,0.80
2022-07-28T09:49:23.942Z,1.00
2022-07-28T09:54:29.926Z,0.80
2022-07-28T09:59:42.133Z,0.73
2022-07-28T10:04:45.260Z,0.65
2022-07-28T10:10:07.804Z,0.73
2022-07-28T10:15:37.178Z,0.68
2022-07-28T10:20:38.918Z,0.95
2022-07-28T10:25:40.875Z,0.82
2022-07-28T10:30:42.812Z,0.75
2022-07-28T10:35:54.480Z,0.52
2022-07-28T10:40:58.505Z,0.60
2022-07-28T10:46:06.143Z,0.70
2022-07-28T10:51:09.294Z,0.80
2022-07-28T10:56:15.971Z,1.00
2022-07-28T11:01:53.844Z,0.70
2022-07-28T11:07:10.135Z,0.63
2022-07-28T11:12:17.629Z,0.93
2022-07-28T11:17:24.028Z,0.90
2022-07-28T11:22:29.653Z,1.15
2022-07-28T11:27:45.434Z,0.80
2022-07-28T11:32:49.957Z,0.90
2022-07-28T11:38:00.501Z,0.70
2022-07-28T11:43:22.122Z,0.60
2022-07-28T11:48:26.317Z,0.70
2022-07-28T11:53:42.509Z,0.70
2022-07-28T11:58:44.249Z,0.70
2022-07-28T12:03:50.441Z,0.90
2022-07-28T12:09:10.322Z,0.90
2022-07-28T12:14:17.597Z,1.00
2022-07-28T12:19:20.209Z,0.80
2022-07-28T12:24:44.679Z,0.90
2022-07-28T12:29:57.383Z,0.98
2022-07-28T12:34:59.230Z,0.68
2022-07-28T12:40:02.605Z,0.82
2022-07-28T12:45:07.436Z,0.90
2022-07-28T12:50:20.110Z,0.63
2022-07-28T12:55:27.107Z,0.63
2022-07-28T13:00:31.422Z,1.20
2022-07-28T13:05:54.534Z,0.60
2022-07-28T13:10:58.696Z,0.73
2022-07-28T13:16:15.144Z,0.95
2022-07-28T13:21:35.933Z,1.00
2022-07-28T13:26:38.588Z,0.85
2022-07-28T13:31:45.994Z,1.20
2022-07-28T13:36:47.643Z,1.10
2022-07-28T13:41:58.586Z,0.75
2022-07-28T13:47:01.838Z,0.75
2022-07-28T13:52:05.284Z,1.10
2022-07-28T13:57:14.947Z,1.10
2022-07-28T14:02:16.911Z,0.90
2022-07-28T14:07:21.067Z,0.75
2022-07-28T14:12:23.017Z,1.00
2022-07-28T14:17:43.936Z,0.68
2022-07-28T14:22:47.041Z,0.63
2022-07-28T14:27:49.787Z,0.70
2022-07-28T14:32:52.139Z,0.80
2022-07-28T14:43:15.754Z,1.08
2022-07-28T14:48:17.403Z,0.93
2022-07-28T14:53:22.122Z,1.13
2022-07-28T14:58:23.832Z,0.93
2022-07-28T15:03:34.193Z,1.17
2022-07-28T15:08:37.751Z,0.93
2022-07-28T15:13:39.301Z,0.82
2022-07-28T15:18:40.807Z,0.90
2022-07-28T15:23:42.463Z,0.98
2022-07-28T15:28:44.084Z,0.88
2022-07-28T15:33:48.237Z,1.00
2022-07-28T15:38:53.889Z,0.80
2022-07-28T15:43:56.225Z,1.00
2022-07-28T15:49:00.455Z,1.20
2022-07-28T15:54:02.940Z,1.05
2022-07-28T15:59:06.001Z,1.00
2022-07-28T16:04:07.745Z,0.82
2022-07-28T16:09:09.431Z,0.85
2022-07-28T16:14:11.473Z,0.80
2022-07-28T16:19:31.699Z,1.20
2022-07-28T16:24:35.474Z,0.90
2022-07-28T16:29:38.000Z,0.93
2022-07-28T16:34:39.685Z,0.90
2022-07-28T16:39:41.280Z,0.90
2022-07-28T16:44:42.890Z,1.20
2022-07-28T16:49:46.104Z,1.00
2022-07-28T16:54:47.979Z,0.93
2022-07-28T16:59:50.541Z,1.00
2022-07-28T17:04:52.129Z,1.05
2022-07-28T17:09:53.768Z,1.00
2022-07-28T17:14:55.478Z,1.20
2022-07-28T17:19:58.976Z,0.98
2022-07-28T17:25:00.649Z,1.02
2022-07-28T17:30:02.600Z,0.70
2022-07-28T17:35:04.517Z,1.15
2022-07-28T17:40:07.246Z,1.65
2022-07-28T17:45:09.297Z,1.08
2022-07-28T17:50:14.603Z,0.85
2022-07-28T17:55:57.651Z,1.00
2022-07-28T18:00:58.977Z,1.10
2022-07-28T18:06:13.016Z,0.90
2022-07-28T18:11:14.617Z,0.90
2022-07-28T18:16:16.417Z,1.00
2022-07-28T18:21:17.999Z,1.10
2022-07-28T18:26:19.624Z,0.95
2022-07-28T18:31:21.778Z,0.90
2022-07-28T18:36:23.495Z,1.10
2022-07-28T18:41:25.205Z,1.02
2022-07-28T18:46:27.467Z,1.35
2022-07-28T18:51:29.324Z,0.95
2022-07-28T18:56:31.095Z,0.85
2022-07-28T19:01:32.776Z,0.90
2022-07-28T19:06:35.503Z,1.10
2022-07-28T19:11:40.075Z,1.20
2022-07-28T19:16:45.147Z,1.02
2022-07-28T19:21:46.883Z,1.23
2022-07-28T19:26:51.500Z,1.15
2022-07-28T19:31:53.383Z,0.98
2022-07-28T19:36:56.221Z,1.10
2022-07-28T19:41:57.930Z,0.90
2022-07-28T19:47:00.578Z,1.10
2022-07-28T19:52:02.255Z,1.20
2022-07-28T19:57:10.335Z,1.20
2022-07-28T20:02:14.344Z,1.00
2022-07-28T20:07:16.126Z,1.00
2022-07-28T20:12:18.465Z,1.08
2022-07-28T20:17:37.464Z,1.27
2022-07-28T20:22:41.280Z,1.20
2022-07-28T20:27:43.404Z,1.20
2022-07-28T20:32:45.244Z,0.98
2022-07-28T20:37:46.978Z,0.73
2022-07-28T20:42:52.807Z,1.20
2022-07-28T20:47:55.038Z,1.05
2022-07-28T20:52:56.896Z,1.27
2022-07-28T20:57:58.577Z,1.65
2022-07-28T21:03:00.262Z,1.08
2022-07-28T21:08:05.992Z,1.20
2022-07-28T21:13:08.613Z,1.17
2022-07-28T21:18:10.762Z,1.30
2022-07-28T21:23:12.529Z,1.00
2022-07-28T21:28:33.451Z,1.40
2022-07-28T21:33:35.222Z,1.00
2022-07-28T21:38:36.890Z,0.97
2022-07-28T21:43:38.915Z,1.40
2022-07-28T21:48:40.682Z,1.00
2022-07-28T21:53:45.077Z,1.30
2022-07-28T21:58:47.464Z,1.00
2022-07-28T22:03:49.151Z,1.30
2022-07-28T22:08:53.680Z,1.10
2022-07-28T22:13:55.479Z,1.03
2022-07-28T22:18:57.035Z,1.10
2022-07-28T22:23:58.685Z,1.23
2022-07-28T22:29:00.233Z,1.10
2022-07-28T22:34:02.248Z,1.30
2022-07-28T22:39:04.020Z,1.30
2022-07-28T22:44:05.772Z,1.40
2022-07-28T22:49:07.710Z,1.50
2022-07-28T22:54:09.373Z,1.10
2022-07-28T22:59:11.021Z,1.30
2022-07-28T23:04:16.290Z,1.53
2022-07-28T23:09:18.183Z,1.10
2022-07-28T23:14:19.680Z,1.40
2022-07-28T23:19:21.244Z,1.30
2022-07-28T23:24:23.251Z,1.40
2022-07-28T23:29:24.755Z,1.30
2022-07-28T23:34:26.284Z,1.30
2022-07-28T23:39:29.826Z,1.20
2022-07-28T23:44:31.386Z,1.27
2022-07-28T23:49:32.914Z,1.33
2022-07-28T23:54:34.425Z,1.30
2022-07-28T23:59:35.953Z,1.40
